Time;durP1;ratioP1;P1;durP2;ratioP2;P2;SDS_P1;SDS_P2;PMS_P1;PMS_P2;Temp;Humidity;BMP_temperature;BMP_pressure;BME280_temperature;BME280_humidity;BME280_pressure;Samples;Min_cycle;Max_cycle;Signal;HPM_P1;HPM_P2
2023/01/01 00:01:45;;;;;;;349.88;199.77;;;;;;;;;;5032318;28;20038;-58
2023/01/01 00:04:14;;;;;;;350.75;207.32;;;;;;;;;;5032315;28;20088;-59
2023/01/01 00:06:42;;;;;;;333.58;196.35;;;;;;;;;;5032134;28;20045;-58
2023/01/01 00:11:55;;;;;;;345.63;201.90;;;;;;;;;;5032103;28;20051;-59
2023/01/01 00:14:23;;;;;;;353.42;207.90;;;;;;;;;;5031661;28;20054;-59
2023/01/01 00:16:51;;;;;;;365.33;210.07;;;;;;;;;;5051051;28;20041;-62
2023/01/01 00:19:18;;;;;;;381.45;216.27;;;;;;;;;;5051587;28;20758;-62
2023/01/01 00:21:45;;;;;;;377.15;215.27;;;;;;;;;;5052346;28;20059;-62
2023/01/01 00:24:13;;;;;;;382.73;216.88;;;;;;;;;;5051813;28;20041;-62
2023/01/01 00:26:41;;;;;;;413.23;236.63;;;;;;;;;;5050794;28;20037;-62
2023/01/01 00:29:08;;;;;;;397.20;222.48;;;;;;;;;;5050200;28;20223;-62
2023/01/01 00:31:35;;;;;;;368.02;206.32;;;;;;;;;;5051742;28;20036;-62
2023/01/01 00:34:03;;;;;;;350.17;193.85;;;;;;;;;;5051836;28;20061;-62
2023/01/01 00:36:31;;;;;;;374.77;211.30;;;;;;;;;;5051711;28;20037;-62
2023/01/01 00:38:58;;;;;;;362.25;203.38;;;;;;;;;;5051856;28;20044;-62
2023/01/01 00:41:25;;;;;;;349.65;194.95;;;;;;;;;;5051804;28;20033;-62
2023/01/01 00:43:53;;;;;;;348.90;197.35;;;;;;;;;;5051658;28;20053;-62
2023/01/01 00:46:20;;;;;;;358.23;194.38;;;;;;;;;;5052012;28;20033;-62
2023/01/01 00:48:48;;;;;;;339.63;183.70;;;;;;;;;;5052108;28;20067;-62
2023/01/01 00:51:15;;;;;;;318.55;180.50;;;;;;;;;;5051768;28;20048;-62
2023/01/01 00:53:43;;;;;;;310.40;170.90;;;;;;;;;;5051604;28;20087;-62
2023/01/01 00:56:10;;;;;;;316.38;173.55;;;;;;;;;;5051595;28;20037;-62
2023/01/01 00:58:38;;;;;;;291.30;162.85;;;;;;;;;;5051293;28;20039;-62
2023/01/01 01:01:05;;;;;;;319.27;173.60;;;;;;;;;;5051380;28;20045;-62
2023/01/01 01:03:33;;;;;;;310.85;168.50;;;;;;;;;;5051015;28;20041;-61
2023/01/01 01:06:03;;;;;;;312.73;165.90;;;;;;;;;;5050865;28;20132;-62
2023/01/01 01:08:33;;;;;;;303.77;166.98;;;;;;;;;;5051485;28;20073;-62
2023/01/01 01:11:07;;;;;;;294.27;161.30;;;;;;;;;;5051952;28;20037;-61
2023/01/01 01:13:35;;;;;;;292.00;154.13;;;;;;;;;;5051778;28;20076;-62
2023/01/01 01:16:10;;;;;;;292.85;157.02;;;;;;;;;;5051092;28;20041;-62
2023/01/01 01:18:38;;;;;;;278.52;152.02;;;;;;;;;;5051296;28;20051;-62
2023/01/01 01:21:05;;;;;;;273.42;152.48;;;;;;;;;;5051744;28;20041;-61
2023/01/01 01:23:33;;;;;;;272.00;149.73;;;;;;;;;;5050541;28;20116;-62
2023/01/01 01:26:13;;;;;;;270.60;145.45;;;;;;;;;;5050411;28;20560;-62
2023/01/01 01:28:40;;;;;;;223.27;119.03;;;;;;;;;;5051715;28;20044;-61
2023/01/01 01:31:15;;;;;;;145.27;79.90;;;;;;;;;;5052044;28;20049;-61
2023/01/01 01:33:43;;;;;;;157.23;85.85;;;;;;;;;;5051729;28;20053;-61
2023/01/01 01:36:11;;;;;;;217.43;113.88;;;;;;;;;;5050565;28;20513;-61
2023/01/01 01:38:39;;;;;;;163.48;95.00;;;;;;;;;;5051696;28;20041;-62
2023/01/01 01:41:07;;;;;;;192.20;108.40;;;;;;;;;;5054389;28;20040;-62
2023/01/01 01:43:34;;;;;;;221.82;117.35;;;;;;;;;;5055089;28;20083;-62
2023/01/01 01:46:14;;;;;;;198.20;108.90;;;;;;;;;;5055284;28;20045;-61
2023/01/01 01:48:43;;;;;;;201.73;110.70;;;;;;;;;;5055290;28;20084;-61
2023/01/01 01:51:12;;;;;;;207.40;113.10;;;;;;;;;;5055109;28;20382;-62
2023/01/01 01:53:41;;;;;;;210.98;113.00;;;;;;;;;;5055175;28;20391;-61
2023/01/01 01:56:12;;;;;;;213.57;116.20;;;;;;;;;;5054923;28;20052;-61
2023/01/01 01:58:39;;;;;;;203.88;107.38;;;;;;;;;;5055022;28;20495;-61
2023/01/01 02:01:06;;;;;;;201.10;107.97;;;;;;;;;;5053675;28;20471;-61
2023/01/01 02:03:47;;;;;;;200.82;109.07;;;;;;;;;;5054893;28;20075;-61
2023/01/01 02:06:15;;;;;;;142.20;79.18;;;;;;;;;;5054857;28;20501;-61
2023/01/01 02:08:43;;;;;;;165.70;89.22;;;;;;;;;;5054777;28;20045;-61
2023/01/01 02:11:10;;;;;;;112.80;61.53;;;;;;;;;;5054725;28;20037;-61
2023/01/01 02:13:40;;;;;;;151.85;81.53;;;;;;;;;;5054737;28;20060;-61
2023/01/01 02:16:21;;;;;;;194.75;103.63;;;;;;;;;;5054685;28;20037;-61
2023/01/01 02:18:57;;;;;;;182.77;95.40;;;;;;;;;;5054524;28;20049;-61
2023/01/01 02:21:27;;;;;;;168.90;90.43;;;;;;;;;;5054570;28;20068;-61
2023/01/01 02:24:02;;;;;;;167.40;91.30;;;;;;;;;;5054744;28;20037;-61
2023/01/01 02:26:58;;;;;;;160.00;84.80;;;;;;;;;;5054317;28;20045;-62
2023/01/01 02:29:42;;;;;;;179.85;93.82;;;;;;;;;;5046092;28;20087;-61
2023/01/01 02:32:10;;;;;;;186.88;93.57;;;;;;;;;;5054500;28;20541;-61
2023/01/01 02:34:50;;;;;;;171.93;91.18;;;;;;;;;;5054015;28;20075;-61
2023/01/01 02:37:20;;;;;;;189.77;95.32;;;;;;;;;;5054338;28;20052;-62
2023/01/01 02:39:56;;;;;;;176.68;96.82;;;;;;;;;;5054033;28;20509;-62
2023/01/01 02:42:26;;;;;;;174.75;92.93;;;;;;;;;;5054280;28;20044;-62
2023/01/01 02:44:55;;;;;;;171.45;87.45;;;;;;;;;;5053895;28;20486;-62
2023/01/01 02:47:22;;;;;;;155.40;84.70;;;;;;;;;;5054188;28;20037;-61
2023/01/01 02:49:53;;;;;;;157.75;86.00;;;;;;;;;;5054081;28;20110;-61
2023/01/01 02:52:40;;;;;;;157.98;85.95;;;;;;;;;;5053906;28;20103;-62
2023/01/01 02:55:15;;;;;;;109.22;60.40;;;;;;;;;;5053824;28;20055;-61
2023/01/01 02:57:49;;;;;;;137.52;70.65;;;;;;;;;;5053997;28;20037;-61
2023/01/01 03:00:18;;;;;;;130.32;70.00;;;;;;;;;;5052599;28;20140;-62
2023/01/01 03:02:54;;;;;;;128.90;70.03;;;;;;;;;;5053887;28;20040;-62
2023/01/01 03:06:21;;;;;;;132.45;71.03;;;;;;;;;;5053672;28;20045;-61
2023/01/01 03:08:40;;;;;;;139.85;77.32;;;;;;;;;;5053597;28;20487;-61
2023/01/01 03:11:10;;;;;;;132.65;74.05;;;;;;;;;;5053755;28;20120;-61
2023/01/01 03:13:49;;;;;;;143.23;72.78;;;;;;;;;;5053431;28;20041;-61
2023/01/01 03:16:29;;;;;;;136.38;71.72;;;;;;;;;;5053538;28;20541;-61
2023/01/01 03:19:09;;;;;;;144.68;75.15;;;;;;;;;;5053464;28;20049;-61
2023/01/01 03:21:40;;;;;;;140.85;75.47;;;;;;;;;;5053372;28;20037;-61
2023/01/01 03:24:09;;;;;;;123.88;68.40;;;;;;;;;;5053330;28;20449;-61
2023/01/01 03:26:38;;;;;;;117.18;61.40;;;;;;;;;;5053394;28;20463;-61
2023/01/01 03:29:09;;;;;;;119.20;62.33;;;;;;;;;;5053457;28;20513;-61
2023/01/01 03:31:37;;;;;;;121.18;63.67;;;;;;;;;;5053311;28;20052;-61
2023/01/01 03:34:07;;;;;;;100.90;53.80;;;;;;;;;;5053112;28;20140;-61
2023/01/01 03:36:38;;;;;;;109.43;55.63;;;;;;;;;;5053242;28;20037;-61
2023/01/01 03:39:09;;;;;;;97.30;50.25;;;;;;;;;;5053123;28;20047;-61
2023/01/01 03:41:43;;;;;;;113.95;59.75;;;;;;;;;;5053085;28;20129;-61
2023/01/01 03:44:13;;;;;;;160.90;83.13;;;;;;;;;;5052899;28;20051;-61
2023/01/01 03:46:40;;;;;;;174.88;92.10;;;;;;;;;;5053087;28;20095;-61
2023/01/01 03:49:09;;;;;;;191.48;100.40;;;;;;;;;;5053088;28;20045;-61
2023/01/01 03:51:40;;;;;;;186.23;101.55;;;;;;;;;;5053050;28;20438;-61
2023/01/01 03:54:10;;;;;;;181.35;99.10;;;;;;;;;;5051788;28;20580;-61
2023/01/01 03:56:40;;;;;;;188.68;103.90;;;;;;;;;;5052824;28;20043;-61
2023/01/01 03:59:15;;;;;;;187.10;100.85;;;;;;;;;;5053014;28;20041;-61
2023/01/01 04:01:44;;;;;;;186.57;98.50;;;;;;;;;;5052641;28;20475;-60
2023/01/01 04:04:13;;;;;;;177.38;94.88;;;;;;;;;;5051293;28;20301;-61
2023/01/01 04:06:40;;;;;;;191.73;100.28;;;;;;;;;;5052649;28;20457;-61
2023/01/01 04:09:11;;;;;;;205.90;107.60;;;;;;;;;;5052589;28;20063;-61
2023/01/01 04:14:46;;;;;;;202.85;112.20;;;;;;;;;;5051331;28;20466;-61
2023/01/01 04:17:14;;;;;;;201.68;110.65;;;;;;;;;;5052556;28;20515;-61
2023/01/01 04:19:41;;;;;;;224.02;113.65;;;;;;;;;;5052615;28;20045;-61
2023/01/01 04:22:09;;;;;;;200.85;108.07;;;;;;;;;;5052477;28;20037;-61
2023/01/01 04:24:36;;;;;;;202.18;110.40;;;;;;;;;;5052421;28;20154;-61
2023/01/01 04:27:04;;;;;;;211.77;114.25;;;;;;;;;;5052528;28;20041;-61
2023/01/01 04:29:32;;;;;;;210.75;112.65;;;;;;;;;;5052515;28;20040;-61
2023/01/01 04:32:00;;;;;;;208.73;111.80;;;;;;;;;;5052415;28;20497;-61
2023/01/01 04:34:27;;;;;;;201.82;109.20;;;;;;;;;;5052433;28;20049;-61
2023/01/01 04:36:55;;;;;;;207.77;111.93;;;;;;;;;;5052440;28;20478;-61
2023/01/01 04:39:22;;;;;;;195.13;109.25;;;;;;;;;;5052340;28;20094;-61
2023/01/01 04:41:50;;;;;;;208.02;110.43;;;;;;;;;;5052399;28;20538;-61
2023/01/01 04:44:18;;;;;;;193.93;109.50;;;;;;;;;;5052315;28;20037;-61
2023/01/01 04:46:45;;;;;;;176.05;101.78;;;;;;;;;;5052333;28;20045;-61
2023/01/01 04:49:13;;;;;;;205.88;110.20;;;;;;;;;;5052286;28;20049;-61
2023/01/01 04:51:40;;;;;;;187.27;104.85;;;;;;;;;;5052324;28;20051;-61
2023/01/01 04:54:08;;;;;;;176.45;97.32;;;;;;;;;;5052269;28;20067;-61
2023/01/01 04:56:35;;;;;;;178.95;95.03;;;;;;;;;;5052277;28;20041;-61
2023/01/01 04:59:03;;;;;;;169.60;94.65;;;;;;;;;;5052188;28;20103;-60
2023/01/01 05:01:30;;;;;;;169.77;96.70;;;;;;;;;;5052574;28;20064;-61
2023/01/01 05:03:58;;;;;;;166.05;93.85;;;;;;;;;;5051707;28;20041;-61
2023/01/01 05:06:26;;;;;;;169.80;96.05;;;;;;;;;;5052120;28;20550;-61
2023/01/01 05:08:54;;;;;;;169.82;95.15;;;;;;;;;;5052014;28;20111;-61
2023/01/01 05:11:26;;;;;;;114.70;61.45;;;;;;;;;;5051972;28;20128;-61
2023/01/01 05:13:55;;;;;;;89.05;48.45;;;;;;;;;;5051922;28;20136;-61
2023/01/01 05:16:23;;;;;;;47.60;29.52;;;;;;;;;;5055021;28;20041;-61
2023/01/01 05:18:51;;;;;;;92.05;49.90;;;;;;;;;;5055874;28;20045;-61
2023/01/01 05:21:20;;;;;;;62.75;36.40;;;;;;;;;;5055620;28;20052;-62
2023/01/01 05:23:48;;;;;;;55.38;31.50;;;;;;;;;;5055748;28;20071;-61
2023/01/01 05:26:15;;;;;;;57.15;35.05;;;;;;;;;;5055707;28;20441;-61
2023/01/01 05:28:43;;;;;;;57.30;32.47;;;;;;;;;;5055618;28;20041;-62
2023/01/01 05:31:12;;;;;;;46.42;26.73;;;;;;;;;;5055659;28;20071;-62
2023/01/01 05:33:41;;;;;;;30.92;16.85;;;;;;;;;;5055322;28;20537;-62
2023/01/01 05:36:09;;;;;;;24.70;15.20;;;;;;;;;;5055591;28;20044;-62
2023/01/01 05:38:37;;;;;;;34.45;20.88;;;;;;;;;;5055393;28;20073;-61
2023/01/01 05:41:07;;;;;;;35.60;19.77;;;;;;;;;;5055423;28;20499;-61
2023/01/01 05:43:35;;;;;;;29.40;16.92;;;;;;;;;;5055368;28;20037;-62
2023/01/01 05:46:05;;;;;;;27.58;16.58;;;;;;;;;;5055269;28;20048;-62
2023/01/01 05:48:35;;;;;;;25.50;16.30;;;;;;;;;;5055563;28;20446;-62
2023/01/01 05:51:03;;;;;;;23.67;15.80;;;;;;;;;;5055229;28;20045;-62
2023/01/01 05:53:30;;;;;;;24.85;14.48;;;;;;;;;;5055251;28;20491;-62
2023/01/01 05:55:58;;;;;;;26.20;14.52;;;;;;;;;;5054996;28;20068;-61
2023/01/01 05:58:26;;;;;;;24.63;14.27;;;;;;;;;;5055270;28;20395;-62
2023/01/01 06:00:54;;;;;;;24.40;16.25;;;;;;;;;;5055188;28;20123;-62
2023/01/01 06:03:21;;;;;;;22.65;13.25;;;;;;;;;;5053820;28;20510;-62
2023/01/01 06:05:49;;;;;;;22.00;14.43;;;;;;;;;;5054884;28;20041;-62
2023/01/01 06:08:16;;;;;;;25.98;16.77;;;;;;;;;;5054843;28;20040;-62
2023/01/01 06:10:45;;;;;;;26.02;16.92;;;;;;;;;;5054850;28;20037;-62
2023/01/01 06:13:12;;;;;;;31.73;17.20;;;;;;;;;;5054766;28;20036;-62
2023/01/01 06:15:40;;;;;;;25.17;15.80;;;;;;;;;;5054804;28;20405;-62
2023/01/01 06:18:07;;;;;;;28.25;15.48;;;;;;;;;;5054759;28;20084;-62
2023/01/01 06:20:35;;;;;;;28.33;16.25;;;;;;;;;;5054539;28;20045;-62
2023/01/01 06:23:02;;;;;;;25.02;15.80;;;;;;;;;;5054705;28;20057;-62
2023/01/01 06:25:29;;;;;;;23.27;14.15;;;;;;;;;;5053966;28;20048;-62
2023/01/01 06:27:57;;;;;;;22.45;13.98;;;;;;;;;;5053385;28;20041;-62
2023/01/01 06:30:24;;;;;;;23.35;13.52;;;;;;;;;;5054528;28;20053;-62
2023/01/01 06:32:53;;;;;;;24.35;13.57;;;;;;;;;;5054362;28;20087;-62
2023/01/01 06:35:20;;;;;;;20.58;13.38;;;;;;;;;;5054400;28;20114;-62
2023/01/01 06:37:47;;;;;;;22.10;13.80;;;;;;;;;;5053115;28;20045;-62
2023/01/01 06:40:15;;;;;;;21.20;12.32;;;;;;;;;;5054146;28;20063;-62
2023/01/01 06:42:42;;;;;;;18.75;12.02;;;;;;;;;;5054114;28;20044;-62
2023/01/01 06:45:10;;;;;;;19.58;12.45;;;;;;;;;;5053987;28;20041;-62
2023/01/01 06:47:37;;;;;;;17.45;11.40;;;;;;;;;;5054382;28;20033;-62
2023/01/01 06:50:06;;;;;;;19.55;11.50;;;;;;;;;;5052968;28;20380;-62
2023/01/01 06:52:33;;;;;;;22.50;11.65;;;;;;;;;;5053848;28;20071;-62
2023/01/01 06:55:00;;;;;;;18.15;12.10;;;;;;;;;;5054085;28;20045;-60
2023/01/01 06:57:28;;;;;;;18.80;12.30;;;;;;;;;;5054010;28;20064;-62
2023/01/01 06:59:55;;;;;;;19.83;11.63;;;;;;;;;;5053869;28;20049;-62
2023/01/01 07:02:23;;;;;;;17.23;11.30;;;;;;;;;;5053679;28;20068;-62
2023/01/01 07:04:51;;;;;;;18.23;10.73;;;;;;;;;;5053798;28;20041;-62
2023/01/01 07:07:18;;;;;;;16.40;10.70;;;;;;;;;;5053766;28;20040;-62
2023/01/01 07:09:45;;;;;;;19.55;11.73;;;;;;;;;;5053783;28;20041;-62
2023/01/01 07:12:13;;;;;;;16.35;10.95;;;;;;;;;;5053716;28;20120;-62
2023/01/01 07:14:40;;;;;;;17.63;11.30;;;;;;;;;;5053579;28;20398;-62
2023/01/01 07:17:08;;;;;;;17.17;11.35;;;;;;;;;;5056181;28;20036;-62
2023/01/01 07:19:35;;;;;;;17.20;10.80;;;;;;;;;;5060071;28;20064;-62
2023/01/01 07:22:03;;;;;;;18.45;11.55;;;;;;;;;;5056107;28;20068;-62
2023/01/01 07:24:30;;;;;;;16.75;11.20;;;;;;;;;;5053617;28;20064;-62
2023/01/01 07:26:57;;;;;;;18.27;11.60;;;;;;;;;;5053332;28;20548;-62
2023/01/01 07:29:25;;;;;;;15.77;10.25;;;;;;;;;;5053270;28;20061;-62
2023/01/01 07:31:52;;;;;;;15.63;10.95;;;;;;;;;;5058262;28;20036;-62
2023/01/01 07:34:21;;;;;;;15.88;11.88;;;;;;;;;;5071558;28;20747;-62
2023/01/01 07:36:49;;;;;;;16.63;11.25;;;;;;;;;;5072783;28;20040;-62
2023/01/01 07:39:17;;;;;;;16.77;11.82;;;;;;;;;;5072718;28;20556;-63
2023/01/01 07:41:44;;;;;;;17.58;11.10;;;;;;;;;;5068619;28;20075;-62
2023/01/01 07:44:12;;;;;;;15.30;11.13;;;;;;;;;;5060595;28;20468;-63
2023/01/01 07:46:40;;;;;;;15.38;11.32;;;;;;;;;;5066237;28;20068;-61
2023/01/01 07:49:08;;;;;;;15.88;10.85;;;;;;;;;;5064750;28;20091;-62
2023/01/01 07:51:35;;;;;;;16.35;11.00;;;;;;;;;;5055711;28;20044;-62
2023/01/01 07:54:03;;;;;;;16.52;11.88;;;;;;;;;;5051546;28;20037;-61
2023/01/01 07:56:34;;;;;;;16.55;11.40;;;;;;;;;;5052868;28;20059;-61
2023/01/01 07:59:01;;;;;;;18.42;10.85;;;;;;;;;;5052754;28;20052;-62
2023/01/01 08:01:29;;;;;;;16.67;11.27;;;;;;;;;;5052785;28;20047;-62
2023/01/01 08:03:57;;;;;;;17.75;11.38;;;;;;;;;;5052739;28;20083;-60
2023/01/01 08:06:24;;;;;;;16.30;10.88;;;;;;;;;;5051395;28;20045;-61
2023/01/01 08:08:52;;;;;;;15.50;10.65;;;;;;;;;;5052731;28;20037;-61
2023/01/01 08:11:19;;;;;;;16.20;11.23;;;;;;;;;;5052731;28;20045;-61
2023/01/01 08:13:47;;;;;;;17.08;11.23;;;;;;;;;;5052516;28;20552;-61
2023/01/01 08:16:14;;;;;;;16.30;11.88;;;;;;;;;;5051490;28;20166;-60
2023/01/01 08:18:42;;;;;;;19.90;12.55;;;;;;;;;;5050983;28;20136;-60
2023/01/01 08:21:09;;;;;;;17.25;12.15;;;;;;;;;;5052252;28;20044;-61
2023/01/01 08:23:36;;;;;;;19.25;12.55;;;;;;;;;;5050849;28;20059;-61
2023/01/01 08:26:04;;;;;;;17.58;12.30;;;;;;;;;;5052277;28;20033;-61
2023/01/01 08:28:31;;;;;;;22.52;13.70;;;;;;;;;;5054235;28;20036;-60
2023/01/01 08:30:59;;;;;;;19.90;13.43;;;;;;;;;;5046849;28;20060;-61
2023/01/01 08:33:28;;;;;;;16.85;11.68;;;;;;;;;;5032422;28;20467;-61
2023/01/01 08:35:56;;;;;;;14.55;9.88;;;;;;;;;;5032353;28;20069;-61
2023/01/01 08:38:23;;;;;;;15.93;10.10;;;;;;;;;;5036463;28;20037;-61
2023/01/01 08:40:51;;;;;;;15.05;9.93;;;;;;;;;;5036397;28;20049;-60
2023/01/01 08:43:18;;;;;;;14.88;9.65;;;;;;;;;;5036007;28;20486;-61
2023/01/01 08:45:46;;;;;;;15.38;9.65;;;;;;;;;;5037391;28;20068;-61
2023/01/01 08:48:13;;;;;;;13.30;9.73;;;;;;;;;;5030841;28;20040;-61
2023/01/01 08:50:41;;;;;;;17.38;10.50;;;;;;;;;;5035259;28;20388;-61
2023/01/01 08:53:09;;;;;;;13.63;9.60;;;;;;;;;;5036038;28;20033;-61
2023/01/01 08:55:36;;;;;;;14.18;9.55;;;;;;;;;;5035972;28;20041;-61
2023/01/01 08:58:07;;;;;;;16.90;11.00;;;;;;;;;;5035900;28;20039;-61
2023/01/01 09:00:35;;;;;;;14.05;9.73;;;;;;;;;;5035792;28;20050;-60
2023/01/01 09:03:02;;;;;;;14.60;9.73;;;;;;;;;;5035692;28;20534;-61
2023/01/01 09:05:30;;;;;;;13.98;9.38;;;;;;;;;;5035562;28;20109;-61
2023/01/01 09:07:57;;;;;;;15.73;9.75;;;;;;;;;;5049509;28;20059;-61
2023/01/01 09:10:24;;;;;;;15.05;10.00;;;;;;;;;;5055619;28;20041;-61
2023/01/01 09:12:52;;;;;;;15.10;9.75;;;;;;;;;;5055734;28;20041;-61
2023/01/01 09:15:19;;;;;;;13.98;10.32;;;;;;;;;;5055528;28;20067;-61
2023/01/01 09:17:47;;;;;;;14.77;9.75;;;;;;;;;;5055756;28;20040;-61
2023/01/01 09:20:14;;;;;;;14.02;10.13;;;;;;;;;;5055391;28;20049;-61
2023/01/01 09:22:42;;;;;;;15.57;10.40;;;;;;;;;;5055617;28;20056;-61
2023/01/01 09:25:09;;;;;;;15.98;10.07;;;;;;;;;;5053799;28;20091;-62
2023/01/01 09:27:37;;;;;;;15.82;10.25;;;;;;;;;;5034381;28;20072;-61
2023/01/01 09:30:05;;;;;;;12.95;9.68;;;;;;;;;;5041274;28;20025;-61
2023/01/01 09:32:32;;;;;;;14.40;10.15;;;;;;;;;;5075036;28;20048;-61
2023/01/01 09:35:00;;;;;;;14.20;9.98;;;;;;;;;;5047348;28;20091;-61
2023/01/01 09:37:28;;;;;;;13.73;10.00;;;;;;;;;;5034506;28;20530;-61
2023/01/01 09:39:55;;;;;;;13.10;10.23;;;;;;;;;;5033561;28;20042;-61
2023/01/01 09:42:31;;;;;;;13.52;9.25;;;;;;;;;;5066462;28;20049;-61
2023/01/01 09:45:14;;;;;;;13.38;8.52;;;;;;;;;;5035000;28;20049;-61
2023/01/01 09:47:46;;;;;;;13.98;9.38;;;;;;;;;;5034920;28;20053;-61
2023/01/01 09:50:24;;;;;;;12.05;9.25;;;;;;;;;;5034706;28;20045;-61
2023/01/01 09:52:56;;;;;;;12.55;8.38;;;;;;;;;;5034882;28;20048;-61
2023/01/01 09:55:26;;;;;;;10.98;8.10;;;;;;;;;;5034769;28;20450;-61
2023/01/01 09:57:54;;;;;;;12.27;8.10;;;;;;;;;;5043344;28;20037;-61
2023/01/01 10:00:22;;;;;;;11.25;7.80;;;;;;;;;;5034082;28;20120;-61
2023/01/01 10:02:49;;;;;;;11.07;7.70;;;;;;;;;;5034895;28;20066;-61
2023/01/01 10:05:26;;;;;;;11.10;8.18;;;;;;;;;;5034337;28;20034;-61
2023/01/01 10:08:03;;;;;;;10.80;8.23;;;;;;;;;;5034132;28;20069;-61
2023/01/01 10:10:40;;;;;;;11.13;7.85;;;;;;;;;;5034541;28;20041;-61
2023/01/01 10:13:10;;;;;;;14.55;8.85;;;;;;;;;;5037728;28;20047;-61
2023/01/01 10:15:40;;;;;;;10.70;7.60;;;;;;;;;;5040598;28;20609;-61
2023/01/01 10:18:15;;;;;;;10.70;7.85;;;;;;;;;;5034406;28;20041;-61
2023/01/01 10:20:57;;;;;;;9.38;7.50;;;;;;;;;;5033705;28;20180;-61
2023/01/01 10:23:26;;;;;;;11.85;8.05;;;;;;;;;;5034246;28;20061;-61
2023/01/01 10:25:55;;;;;;;11.45;7.75;;;;;;;;;;5034311;28;20128;-61
2023/01/01 10:28:25;;;;;;;10.68;7.72;;;;;;;;;;5034096;28;20509;-61
2023/01/01 10:30:54;;;;;;;14.30;7.78;;;;;;;;;;5034306;28;20037;-61
2023/01/01 10:33:21;;;;;;;11.02;7.63;;;;;;;;;;5045451;28;20041;-61
2023/01/01 10:35:50;;;;;;;9.82;7.70;;;;;;;;;;5044705;28;20041;-61
2023/01/01 10:38:24;;;;;;;10.13;7.50;;;;;;;;;;5034028;28;20045;-61
2023/01/01 10:40:54;;;;;;;11.88;8.23;;;;;;;;;;5037520;28;20041;-62
2023/01/01 10:43:21;;;;;;;9.55;7.47;;;;;;;;;;5052921;28;20502;-61
2023/01/01 10:45:51;;;;;;;10.38;6.88;;;;;;;;;;5053679;28;20052;-61
2023/01/01 10:48:19;;;;;;;11.45;7.90;;;;;;;;;;5053851;28;20049;-61
2023/01/01 10:50:49;;;;;;;12.48;6.95;;;;;;;;;;5053757;28;20036;-61
2023/01/01 10:53:43;;;;;;;11.57;7.65;;;;;;;;;;5053553;28;20407;-61
2023/01/01 10:56:15;;;;;;;12.25;7.35;;;;;;;;;;5034444;28;20049;-62
2023/01/01 10:58:43;;;;;;;13.40;7.88;;;;;;;;;;5039973;28;20056;-62
2023/01/01 11:01:13;;;;;;;10.85;7.50;;;;;;;;;;5048544;28;20490;-62
2023/01/01 11:03:56;;;;;;;12.32;7.68;;;;;;;;;;5037763;28;20438;-62
2023/01/01 11:06:28;;;;;;;9.45;7.55;;;;;;;;;;5044787;28;20070;-61
2023/01/01 11:08:56;;;;;;;9.57;6.93;;;;;;;;;;5036791;28;20045;-62
2023/01/01 11:11:32;;;;;;;12.13;7.00;;;;;;;;;;5033653;28;20389;-62
2023/01/01 11:14:03;;;;;;;8.48;6.00;;;;;;;;;;5038960;28;20038;-62
2023/01/01 11:16:31;;;;;;;9.15;6.05;;;;;;;;;;5036451;28;20041;-62
2023/01/01 11:19:00;;;;;;;8.90;6.35;;;;;;;;;;5040462;28;20046;-62
2023/01/01 11:21:28;;;;;;;11.68;6.50;;;;;;;;;;5035053;28;20033;-62
2023/01/01 11:24:16;;;;;;;9.52;6.72;;;;;;;;;;5051077;28;20040;-62
2023/01/01 11:26:44;;;;;;;10.93;6.07;;;;;;;;;;5048821;28;20574;-62
2023/01/01 11:29:24;;;;;;;10.57;6.53;;;;;;;;;;5048688;28;20498;-63
2023/01/01 11:31:52;;;;;;;9.98;6.03;;;;;;;;;;5050761;28;20379;-62
2023/01/01 11:34:31;;;;;;;8.35;6.38;;;;;;;;;;5051090;28;20095;-62
2023/01/01 11:37:09;;;;;;;10.35;6.22;;;;;;;;;;5041421;28;20042;-62
2023/01/01 11:39:37;;;;;;;11.00;5.93;;;;;;;;;;5031745;28;20120;-61
2023/01/01 11:42:07;;;;;;;7.60;5.65;;;;;;;;;;5046506;28;20059;-62
2023/01/01 11:44:40;;;;;;;7.28;5.80;;;;;;;;;;5039193;28;20037;-62
2023/01/01 11:47:18;;;;;;;8.80;5.82;;;;;;;;;;5052774;28;20064;-62
2023/01/01 11:49:46;;;;;;;9.38;5.78;;;;;;;;;;5051603;28;20078;-62
2023/01/01 11:52:27;;;;;;;9.65;6.40;;;;;;;;;;5052723;28;20490;-62
2023/01/01 11:55:01;;;;;;;8.38;6.00;;;;;;;;;;5039943;28;20041;-62
2023/01/01 11:57:28;;;;;;;12.18;7.25;;;;;;;;;;5052613;28;20033;-62
2023/01/01 12:00:00;;;;;;;9.52;6.72;;;;;;;;;;5052548;28;20037;-62
2023/01/01 12:02:33;;;;;;;10.00;6.50;;;;;;;;;;5052363;28;20044;-62
2023/01/01 12:05:10;;;;;;;8.85;6.15;;;;;;;;;;5048590;28;20037;-62
2023/01/01 12:07:38;;;;;;;8.65;5.72;;;;;;;;;;5032261;28;20041;-62
2023/01/01 12:10:12;;;;;;;10.15;6.18;;;;;;;;;;5032427;28;20045;-62
2023/01/01 12:12:48;;;;;;;10.73;7.38;;;;;;;;;;5032400;28;20048;-62
2023/01/01 12:15:16;;;;;;;9.05;6.65;;;;;;;;;;5031068;28;20120;-62
2023/01/01 12:17:47;;;;;;;9.18;5.80;;;;;;;;;;5032294;28;20120;-62
2023/01/01 12:20:20;;;;;;;8.63;6.05;;;;;;;;;;5032236;28;20092;-62
2023/01/01 12:22:48;;;;;;;9.48;6.00;;;;;;;;;;5035281;28;20403;-62
2023/01/01 12:25:17;;;;;;;8.23;6.07;;;;;;;;;;5031868;28;20046;-62
2023/01/01 12:27:54;;;;;;;8.38;5.88;;;;;;;;;;5032309;28;20121;-62
2023/01/01 12:30:30;;;;;;;9.18;5.60;;;;;;;;;;5032617;28;20399;-62
2023/01/01 12:33:06;;;;;;;7.30;5.78;;;;;;;;;;5032179;28;20042;-62
2023/01/01 12:35:44;;;;;;;7.88;5.50;;;;;;;;;;5027046;28;20518;-62
2023/01/01 12:38:11;;;;;;;9.70;5.72;;;;;;;;;;5043480;28;20029;-62
2023/01/01 12:41:08;;;;;;;10.80;6.93;;;;;;;;;;5033908;28;20431;-61
2023/01/01 12:43:39;;;;;;;7.15;4.88;;;;;;;;;;5043587;28;20048;-61
2023/01/01 12:46:12;;;;;;;8.52;5.57;;;;;;;;;;5047801;28;20032;-62
2023/01/01 12:48:40;;;;;;;10.38;6.22;;;;;;;;;;5046746;28;20045;-62
2023/01/01 12:51:30;;;;;;;9.93;5.63;;;;;;;;;;5050882;28;20142;-62
2023/01/01 12:54:01;;;;;;;9.38;6.20;;;;;;;;;;5042931;28;20041;-62
2023/01/01 12:56:47;;;;;;;9.55;6.05;;;;;;;;;;5031591;28;20054;-62
2023/01/01 12:59:21;;;;;;;10.38;6.20;;;;;;;;;;5031823;28;20044;-62
2023/01/01 13:01:51;;;;;;;8.52;6.07;;;;;;;;;;5031742;28;20034;-62
2023/01/01 13:04:20;;;;;;;10.57;6.47;;;;;;;;;;5031959;28;20044;-62
2023/01/01 13:07:02;;;;;;;10.65;6.53;;;;;;;;;;5030401;28;20045;-62
2023/01/01 13:09:38;;;;;;;9.43;6.18;;;;;;;;;;5031717;28;20482;-62
2023/01/01 13:12:08;;;;;;;10.30;6.22;;;;;;;;;;5046392;28;20395;-62
2023/01/01 13:14:39;;;;;;;7.65;5.90;;;;;;;;;;5049742;28;20468;-59
2023/01/01 13:17:18;;;;;;;11.50;6.45;;;;;;;;;;5045117;28;20053;-58
2023/01/01 13:19:46;;;;;;;15.63;6.88;;;;;;;;;;5031442;28;20115;-58
2023/01/01 13:22:37;;;;;;;14.45;6.35;;;;;;;;;;5031192;28;20403;-58
2023/01/01 13:25:09;;;;;;;8.93;6.53;;;;;;;;;;5060963;28;20045;-58
2023/01/01 13:27:55;;;;;;;9.45;6.20;;;;;;;;;;5031271;28;20046;-58
2023/01/01 13:30:35;;;;;;;11.48;7.00;;;;;;;;;;5030771;28;20045;-58
2023/01/01 13:33:22;;;;;;;9.57;6.07;;;;;;;;;;5045276;28;20067;-59
2023/01/01 13:36:10;;;;;;;9.95;6.25;;;;;;;;;;5034200;28;20044;-59
2023/01/01 13:38:48;;;;;;;8.40;5.93;;;;;;;;;;5035069;28;20037;-59
2023/01/01 13:41:35;;;;;;;12.27;8.05;;;;;;;;;;5042394;28;20032;-59
2023/01/01 13:44:03;;;;;;;10.93;6.97;;;;;;;;;;5039575;28;20048;-59
2023/01/01 13:46:33;;;;;;;10.20;6.55;;;;;;;;;;5034829;28;20034;-59
2023/01/01 13:49:00;;;;;;;26.73;17.50;;;;;;;;;;5037155;28;20434;-59
2023/01/01 13:51:47;;;;;;;16.80;10.73;;;;;;;;;;5049642;28;20542;-59
2023/01/01 13:54:32;;;;;;;11.85;7.82;;;;;;;;;;5053545;28;20099;-58
2023/01/01 13:57:02;;;;;;;10.43;6.72;;;;;;;;;;5047789;28;20037;-58
2023/01/01 13:59:51;;;;;;;10.38;7.18;;;;;;;;;;5050812;28;20138;-59
2023/01/01 14:02:21;;;;;;;11.13;7.93;;;;;;;;;;5052870;28;20091;-59
2023/01/01 14:04:52;;;;;;;10.02;6.88;;;;;;;;;;5035744;28;20483;-59
2023/01/01 14:07:32;;;;;;;11.23;7.40;;;;;;;;;;5040257;28;20081;-58
2023/01/01 14:10:21;;;;;;;12.80;7.93;;;;;;;;;;5049413;28;20055;-59
2023/01/01 14:12:49;;;;;;;12.07;7.75;;;;;;;;;;5039925;28;20037;-58
2023/01/01 14:15:23;;;;;;;10.88;8.10;;;;;;;;;;5034448;28;20065;-58
2023/01/01 14:17:52;;;;;;;13.82;8.68;;;;;;;;;;5034089;28;20065;-59
2023/01/01 14:20:22;;;;;;;18.45;11.85;;;;;;;;;;5033733;28;20041;-59
2023/01/01 14:22:50;;;;;;;16.92;12.02;;;;;;;;;;5037507;28;20510;-59
2023/01/01 14:25:24;;;;;;;15.45;11.10;;;;;;;;;;5045522;28;20049;-61
2023/01/01 14:27:52;;;;;;;16.70;11.07;;;;;;;;;;5054078;28;20391;-59
2023/01/01 14:30:20;;;;;;;16.58;10.93;;;;;;;;;;5041459;28;20040;-59
2023/01/01 14:32:55;;;;;;;14.63;10.38;;;;;;;;;;5034176;28;20076;-59
2023/01/01 14:35:22;;;;;;;14.27;10.02;;;;;;;;;;5034036;28;20041;-59
2023/01/01 14:37:50;;;;;;;13.98;10.00;;;;;;;;;;5033982;28;20030;-59
2023/01/01 14:40:25;;;;;;;17.35;10.43;;;;;;;;;;5034201;28;20059;-59
2023/01/01 14:43:05;;;;;;;15.20;11.15;;;;;;;;;;5039965;28;20033;-60